CAMANCHE RESERVOIR (CMN)

Elevation: 236' · MOKELUMNE R basin · Operator: East Bay Municipal Utility District

Provisional data, subject to change.
Query executed Saturday at 20:03:09   clock

Select a sensor type for a plot of data.
Note: Reservoir Flows are daily averages.

Earlier

Date RES ELE    STORAGE    RES CHG    TOC STO    ABV TOC    OUTFLOW    INFLOW   
 FEET   AF   AF   AF   AF   CFS   CFS  
04/24/2015 179.35 105650 -379 348938 -- 246 11
04/25/2015 179.26 105340 -298 350428 -- 257 11
04/26/2015 179.10 104790 -545 351918 -247128 255 11
04/27/2015 178.95 104280 -434 353577 -249297 325 11
04/28/2015 178.80 103780 -493 355307 -251527 281 11
04/29/2015 178.62 103170 -504 357047 -253877 281 11
04/30/2015 178.51 102800 -373 358806 -256006 255 11
05/01/2015 178.37 102330 -449 360546 -- 229 11
05/02/2015 178.23 101870 -467 362256 -- 231 11
05/03/2015 178.08 101370 -- 363935 -262565 229 11
05/04/2015 177.93 100870 -451 365675 -264805 230 11
05/05/2015 177.81 100470 -395 367451 -266981 230 11
05/06/2015 177.96 100970 565 370248 -269278 230 554
05/07/2015 178.14 101570 619 372924 -271354 231 558
05/08/2015 178.31 102130 592 375481 -- 230 556
05/09/2015 178.17 101670 -450 377057 -- 230 11
05/10/2015 178.05 101270 -421 378653 -277383 231 11
05/11/2015 177.90 100770 -451 380310 -279540 231 11
05/12/2015 178.06 101300 537 382996 -281696 230 520
05/13/2015 178.20 101770 470 385652 -283882 231 519
05/14/2015 178.37 102330 601 387312 -284982 226 474
05/15/2015 178.26 101970 -368 387708 -- 215 11
05/16/2015 178.13 101530 -409 388312 -- 215 11
05/17/2015 177.99 101070 -442 389165 -288095 215 11
05/18/2015 177.86 100640 -395 389777 -289137 215 11
05/19/2015 178.00 101100 569 391509 -290409 215 519
05/20/2015 178.19 101730 629 393262 -291532 214 513
05/21/2015 178.34 102230 514 394914 -292684 216 525
05/22/2015 178.50 102768 538 -- -- 216 532
05/23/2015 -- -- -- -- -- -- --

Later | Latest

Warning! This data is preliminary and subject to revision.

Show CMN Map | Plot CMN Data | 1 Month CMN Data | Real-Time CMN Data | CMN Info